sensor_id;sensor_type;location;lat;lon;timestamp;pressure;altitude;pressure_sealevel;temperature;humidity
21276;BME280;36472;52.170;20.884;2024-01-15T00:00:08;98315.84;;;2.77;93.16
21276;BME280;36472;52.170;20.884;2024-01-15T00:02:39;98306.59;;;2.86;91.93
21276;BME280;36472;52.170;20.884;2024-01-15T00:05:09;98295.28;;;2.87;91.74
21276;BME280;36472;52.170;20.884;2024-01-15T00:07:38;98308.25;;;2.87;91.55
21276;BME280;36472;52.170;20.884;2024-01-15T00:10:07;98298.28;;;2.93;91.79
21276;BME280;36472;52.170;20.884;2024-01-15T00:12:38;98290.50;;;2.93;91.63
21276;BME280;36472;52.170;20.884;2024-01-15T00:15:09;98294.34;;;2.88;91.99
21276;BME280;36472;52.170;20.884;2024-01-15T00:17:38;98291.66;;;2.89;91.81
21276;BME280;36472;52.170;20.884;2024-01-15T00:20:08;98280.97;;;2.94;91.74
21276;BME280;36472;52.170;20.884;2024-01-15T00:22:37;98270.69;;;2.92;91.54
21276;BME280;36472;52.170;20.884;2024-01-15T00:25:06;98268.41;;;2.88;91.56
21276;BME280;36472;52.170;20.884;2024-01-15T00:27:35;98252.84;;;2.88;91.52
21276;BME280;36472;52.170;20.884;2024-01-15T00:30:07;98249.19;;;2.90;91.17
21276;BME280;36472;52.170;20.884;2024-01-15T00:32:37;98250.78;;;2.93;90.62
21276;BME280;36472;52.170;20.884;2024-01-15T00:35:06;98252.09;;;2.98;90.73
21276;BME280;36472;52.170;20.884;2024-01-15T00:37:35;98249.09;;;2.92;90.54
21276;BME280;36472;52.170;20.884;2024-01-15T00:40:06;98246.59;;;2.90;91.14
21276;BME280;36472;52.170;20.884;2024-01-15T00:42:37;98243.81;;;2.80;91.02
21276;BME280;36472;52.170;20.884;2024-01-15T00:45:08;98241.34;;;2.79;91.78
21276;BME280;36472;52.170;20.884;2024-01-15T00:47:38;98237.91;;;2.78;92.14
21276;BME280;36472;52.170;20.884;2024-01-15T00:50:08;98234.56;;;2.76;92.31
21276;BME280;36472;52.170;20.884;2024-01-15T00:52:37;98238.41;;;2.71;93.23
21276;BME280;36472;52.170;20.884;2024-01-15T00:55:07;98229.41;;;2.64;93.82
21276;BME280;36472;52.170;20.884;2024-01-15T00:57:36;98222.97;;;2.56;94.45
21276;BME280;36472;52.170;20.884;2024-01-15T01:00:08;98218.91;;;2.52;94.78
21276;BME280;36472;52.170;20.884;2024-01-15T01:02:37;98218.81;;;2.54;95.30
21276;BME280;36472;52.170;20.884;2024-01-15T01:05:07;98217.66;;;2.58;95.53
21276;BME280;36472;52.170;20.884;2024-01-15T01:07:36;98206.38;;;2.46;95.47
21276;BME280;36472;52.170;20.884;2024-01-15T01:10:06;98206.91;;;2.51;95.48
21276;BME280;36472;52.170;20.884;2024-01-15T01:12:36;98205.22;;;2.50;96.14
21276;BME280;36472;52.170;20.884;2024-01-15T01:15:07;98209.59;;;2.50;96.25
21276;BME280;36472;52.170;20.884;2024-01-15T01:17:36;98205.41;;;2.47;96.12
21276;BME280;36472;52.170;20.884;2024-01-15T01:20:07;98203.44;;;2.51;95.97
21276;BME280;36472;52.170;20.884;2024-01-15T01:22:39;98207.59;;;2.40;96.24
21276;BME280;36472;52.170;20.884;2024-01-15T01:25:08;98197.94;;;2.42;96.58
21276;BME280;36472;52.170;20.884;2024-01-15T01:27:38;98199.41;;;2.47;96.57
21276;BME280;36472;52.170;20.884;2024-01-15T01:30:09;98189.44;;;2.28;97.08
21276;BME280;36472;52.170;20.884;2024-01-15T01:32:38;98190.59;;;2.36;97.06
21276;BME280;36472;52.170;20.884;2024-01-15T01:35:07;98181.66;;;2.40;97.16
21276;BME280;36472;52.170;20.884;2024-01-15T01:37:37;98176.47;;;2.40;97.01
21276;BME280;36472;52.170;20.884;2024-01-15T01:40:07;98189.66;;;2.24;97.68
21276;BME280;36472;52.170;20.884;2024-01-15T01:42:36;98176.16;;;2.19;97.95
21276;BME280;36472;52.170;20.884;2024-01-15T01:45:08;98165.50;;;2.37;97.35
21276;BME280;36472;52.170;20.884;2024-01-15T01:47:38;98170.06;;;2.46;97.24
21276;BME280;36472;52.170;20.884;2024-01-15T01:50:08;98161.44;;;2.46;96.76
21276;BME280;36472;52.170;20.884;2024-01-15T01:52:37;98160.44;;;2.48;96.39
21276;BME280;36472;52.170;20.884;2024-01-15T01:55:07;98148.47;;;2.46;96.22
21276;BME280;36472;52.170;20.884;2024-01-15T01:57:38;98144.66;;;2.51;95.58
21276;BME280;36472;52.170;20.884;2024-01-15T02:00:11;98146.50;;;2.49;95.98
21276;BME280;36472;52.170;20.884;2024-01-15T02:02:40;98146.50;;;2.49;95.64
21276;BME280;36472;52.170;20.884;2024-01-15T02:05:10;98147.03;;;2.54;95.29
21276;BME280;36472;52.170;20.884;2024-01-15T02:07:41;98150.88;;;2.49;95.62
21276;BME280;36472;52.170;20.884;2024-01-15T02:10:10;98144.03;;;2.48;95.74
21276;BME280;36472;52.170;20.884;2024-01-15T02:12:39;98135.84;;;2.54;95.05
21276;BME280;36472;52.170;20.884;2024-01-15T02:15:10;98148.69;;;2.55;95.05
21276;BME280;36472;52.170;20.884;2024-01-15T02:17:58;98131.97;;;2.59;94.78
21276;BME280;36472;52.170;20.884;2024-01-15T02:20:27;98128.56;;;2.59;94.36
21276;BME280;36472;52.170;20.884;2024-01-15T02:23:08;98124.00;;;2.62;94.30
21276;BME280;36472;52.170;20.884;2024-01-15T02:25:38;98125.66;;;2.64;93.88
21276;BME280;36472;52.170;20.884;2024-01-15T02:28:10;98128.06;;;2.67;93.76
21276;BME280;36472;52.170;20.884;2024-01-15T02:30:41;98122.78;;;2.55;93.75
21276;BME280;36472;52.170;20.884;2024-01-15T02:33:11;98111.06;;;2.50;93.62
21276;BME280;36472;52.170;20.884;2024-01-15T02:35:41;98114.78;;;2.58;93.94
21276;BME280;36472;52.170;20.884;2024-01-15T02:38:12;98109.81;;;2.55;93.49
21276;BME280;36472;52.170;20.884;2024-01-15T02:40:41;98104.09;;;2.50;93.49
21276;BME280;36472;52.170;20.884;2024-01-15T02:43:10;98096.63;;;2.58;93.14
21276;BME280;36472;52.170;20.884;2024-01-15T02:45:39;98094.75;;;2.60;93.25
21276;BME280;36472;52.170;20.884;2024-01-15T02:48:08;98095.47;;;2.62;93.24
21276;BME280;36472;52.170;20.884;2024-01-15T02:50:37;98086.88;;;2.62;93.40
21276;BME280;36472;52.170;20.884;2024-01-15T02:53:07;98085.41;;;2.58;93.63
21276;BME280;36472;52.170;20.884;2024-01-15T02:55:37;98076.63;;;2.48;93.92
21276;BME280;36472;52.170;20.884;2024-01-15T02:58:07;98061.91;;;2.48;93.70
21276;BME280;36472;52.170;20.884;2024-01-15T03:00:36;98059.09;;;2.51;93.88
21276;BME280;36472;52.170;20.884;2024-01-15T03:03:05;98061.56;;;2.53;92.99
21276;BME280;36472;52.170;20.884;2024-01-15T03:05:34;98053.97;;;2.62;93.18
21276;BME280;36472;52.170;20.884;2024-01-15T03:08:04;98054.53;;;2.42;93.20
21276;BME280;36472;52.170;20.884;2024-01-15T03:10:33;98055.78;;;2.49;93.51
21276;BME280;36472;52.170;20.884;2024-01-15T03:13:03;98042.94;;;2.35;94.68
21276;BME280;36472;52.170;20.884;2024-01-15T03:15:32;98044.00;;;2.19;96.18
21276;BME280;36472;52.170;20.884;2024-01-15T03:18:01;98029.19;;;2.09;96.79
21276;BME280;36472;52.170;20.884;2024-01-15T03:20:31;98027.94;;;2.01;97.89
21276;BME280;36472;52.170;20.884;2024-01-15T03:23:00;98029.41;;;1.93;98.16
21276;BME280;36472;52.170;20.884;2024-01-15T03:25:29;98019.13;;;1.91;98.38
21276;BME280;36472;52.170;20.884;2024-01-15T03:27:58;98021.84;;;2.02;98.49
21276;BME280;36472;52.170;20.884;2024-01-15T03:30:28;98017.78;;;2.11;98.09
21276;BME280;36472;52.170;20.884;2024-01-15T03:32:57;98017.38;;;2.04;98.21
21276;BME280;36472;52.170;20.884;2024-01-15T03:35:26;98004.41;;;2.04;97.89
21276;BME280;36472;52.170;20.884;2024-01-15T03:37:57;98018.44;;;2.02;97.54
21276;BME280;36472;52.170;20.884;2024-01-15T03:40:26;98007.00;;;2.04;97.83
21276;BME280;36472;52.170;20.884;2024-01-15T03:42:55;98010.66;;;1.89;97.39
21276;BME280;36472;52.170;20.884;2024-01-15T03:45:24;98001.94;;;2.03;97.72
21276;BME280;36472;52.170;20.884;2024-01-15T03:47:54;97998.38;;;2.17;97.37
21276;BME280;36472;52.170;20.884;2024-01-15T03:50:23;97998.38;;;2.17;97.35
21276;BME280;36472;52.170;20.884;2024-01-15T03:52:53;97992.38;;;2.29;96.46
21276;BME280;36472;52.170;20.884;2024-01-15T03:55:21;97987.19;;;2.29;96.41
21276;BME280;36472;52.170;20.884;2024-01-15T03:57:50;97986.78;;;2.22;96.06
21276;BME280;36472;52.170;20.884;2024-01-15T04:00:20;97985.56;;;2.15;96.39
21276;BME280;36472;52.170;20.884;2024-01-15T04:02:49;97979.19;;;2.32;96.10
21276;BME280;36472;52.170;20.884;2024-01-15T04:05:19;97982.63;;;2.33;95.67
21276;BME280;36472;52.170;20.884;2024-01-15T04:07:48;97975.06;;;2.30;95.16
21276;BME280;36472;52.170;20.884;2024-01-15T04:10:17;97984.06;;;2.37;95.10
21276;BME280;36472;52.170;20.884;2024-01-15T04:12:46;97973.47;;;2.40;94.91
21276;BME280;36472;52.170;20.884;2024-01-15T04:15:15;97964.50;;;2.20;95.30
21276;BME280;36472;52.170;20.884;2024-01-15T04:17:45;97958.91;;;2.26;94.88
21276;BME280;36472;52.170;20.884;2024-01-15T04:20:14;97956.41;;;2.24;94.98
21276;BME280;36472;52.170;20.884;2024-01-15T04:22:44;97946.75;;;2.27;94.40
21276;BME280;36472;52.170;20.884;2024-01-15T04:25:13;97944.09;;;2.15;95.06
21276;BME280;36472;52.170;20.884;2024-01-15T04:27:42;97943.84;;;2.31;94.48
21276;BME280;36472;52.170;20.884;2024-01-15T04:30:12;97938.16;;;2.26;94.22
21276;BME280;36472;52.170;20.884;2024-01-15T04:32:41;97926.59;;;2.43;94.00
21276;BME280;36472;52.170;20.884;2024-01-15T04:35:11;97921.22;;;2.46;93.22
21276;BME280;36472;52.170;20.884;2024-01-15T04:37:40;97921.22;;;2.46;92.69
21276;BME280;36472;52.170;20.884;2024-01-15T04:40:11;97928.25;;;2.44;92.88
21276;BME280;36472;52.170;20.884;2024-01-15T04:42:41;97904.25;;;2.29;92.70
21276;BME280;36472;52.170;20.884;2024-01-15T04:45:10;97919.56;;;2.32;92.58
21276;BME280;36472;52.170;20.884;2024-01-15T04:47:39;97911.75;;;2.21;93.17
21276;BME280;36472;52.170;20.884;2024-01-15T04:50:08;97912.94;;;2.41;92.35
21276;BME280;36472;52.170;20.884;2024-01-15T04:52:37;97907.88;;;2.27;93.06
21276;BME280;36472;52.170;20.884;2024-01-15T04:55:07;97910.94;;;2.45;92.46
21276;BME280;36472;52.170;20.884;2024-01-15T04:57:37;97910.19;;;2.42;92.44
21276;BME280;36472;52.170;20.884;2024-01-15T05:00:08;97913.16;;;2.38;92.58
21276;BME280;36472;52.170;20.884;2024-01-15T05:02:37;97895.75;;;2.27;92.76
21276;BME280;36472;52.170;20.884;2024-01-15T05:05:07;97906.50;;;2.34;92.75
21276;BME280;36472;52.170;20.884;2024-01-15T05:07:36;97898.41;;;2.38;92.63
21276;BME280;36472;52.170;20.884;2024-01-15T05:10:06;97903.88;;;2.47;92.07
21276;BME280;36472;52.170;20.884;2024-01-15T05:12:37;97891.09;;;2.56;91.34
21276;BME280;36472;52.170;20.884;2024-01-15T05:15:07;97892.56;;;2.48;92.02
21276;BME280;36472;52.170;20.884;2024-01-15T05:17:38;97893.28;;;2.50;91.46
21276;BME280;36472;52.170;20.884;2024-01-15T05:20:08;97892.84;;;2.56;91.77
21276;BME280;36472;52.170;20.884;2024-01-15T05:22:37;97884.13;;;2.57;90.91
21276;BME280;36472;52.170;20.884;2024-01-15T05:25:06;97883.03;;;2.48;90.97
21276;BME280;36472;52.170;20.884;2024-01-15T05:27:37;97889.16;;;2.47;91.38
21276;BME280;36472;52.170;20.884;2024-01-15T05:30:07;97890.75;;;2.37;91.24
21276;BME280;36472;52.170;20.884;2024-01-15T05:32:36;97898.53;;;2.37;91.64
21276;BME280;36472;52.170;20.884;2024-01-15T05:35:06;97880.34;;;2.26;90.86
21276;BME280;36472;52.170;20.884;2024-01-15T05:37:35;97897.19;;;2.31;91.16
21276;BME280;36472;52.170;20.884;2024-01-15T05:40:05;97897.81;;;2.35;90.96
21276;BME280;36472;52.170;20.884;2024-01-15T05:42:34;97893.03;;;2.29;91.08
21276;BME280;36472;52.170;20.884;2024-01-15T05:45:05;97887.75;;;2.30;90.85
21276;BME280;36472;52.170;20.884;2024-01-15T05:47:35;97881.81;;;2.41;90.68
21276;BME280;36472;52.170;20.884;2024-01-15T05:50:04;97880.84;;;2.31;90.94
21276;BME280;36472;52.170;20.884;2024-01-15T05:52:34;97886.75;;;2.44;90.41
21276;BME280;36472;52.170;20.884;2024-01-15T05:55:04;97886.66;;;2.21;90.67
21276;BME280;36472;52.170;20.884;2024-01-15T05:57:33;97879.66;;;2.11;91.06
21276;BME280;36472;52.170;20.884;2024-01-15T06:00:05;97869.00;;;2.27;91.34
21276;BME280;36472;52.170;20.884;2024-01-15T06:02:37;97879.94;;;2.43;90.71
21276;BME280;36472;52.170;20.884;2024-01-15T06:05:07;97875.47;;;2.45;90.92
21276;BME280;36472;52.170;20.884;2024-01-15T06:07:36;97866.97;;;2.43;91.14
21276;BME280;36472;52.170;20.884;2024-01-15T06:10:06;97868.50;;;2.46;90.89
21276;BME280;36472;52.170;20.884;2024-01-15T06:12:36;97857.88;;;2.37;90.78
21276;BME280;36472;52.170;20.884;2024-01-15T06:15:07;97858.31;;;2.31;90.71
21276;BME280;36472;52.170;20.884;2024-01-15T06:17:36;97854.41;;;2.26;91.08
21276;BME280;36472;52.170;20.884;2024-01-15T06:20:08;97853.47;;;2.27;90.78
21276;BME280;36472;52.170;20.884;2024-01-15T06:22:38;97854.91;;;2.31;91.27
21276;BME280;36472;52.170;20.884;2024-01-15T06:25:08;97848.88;;;2.30;91.40
21276;BME280;36472;52.170;20.884;2024-01-15T06:27:37;97845.38;;;2.31;92.41
21276;BME280;36472;52.170;20.884;2024-01-15T06:30:09;97835.44;;;2.25;92.11
21276;BME280;36472;52.170;20.884;2024-01-15T06:32:39;97837.09;;;2.26;91.56
21276;BME280;36472;52.170;20.884;2024-01-15T06:35:09;97829.00;;;2.31;91.00
21276;BME280;36472;52.170;20.884;2024-01-15T06:37:39;97827.22;;;2.07;91.35
21276;BME280;36472;52.170;20.884;2024-01-15T06:40:09;97835.38;;;2.38;90.75
21276;BME280;36472;52.170;20.884;2024-01-15T06:42:38;97828.66;;;2.35;90.43
21276;BME280;36472;52.170;20.884;2024-01-15T06:45:09;97832.00;;;2.49;89.64
21276;BME280;36472;52.170;20.884;2024-01-15T06:47:38;97832.59;;;2.52;89.18
21276;BME280;36472;52.170;20.884;2024-01-15T06:50:08;97834.59;;;2.49;88.87
21276;BME280;36472;52.170;20.884;2024-01-15T06:52:37;97833.72;;;2.37;88.65
21276;BME280;36472;52.170;20.884;2024-01-15T06:55:07;97829.41;;;2.49;88.37
21276;BME280;36472;52.170;20.884;2024-01-15T06:57:36;97833.78;;;2.48;87.91
21276;BME280;36472;52.170;20.884;2024-01-15T07:00:06;97835.78;;;2.45;88.31
21276;BME280;36472;52.170;20.884;2024-01-15T07:02:38;97826.72;;;2.26;88.80
21276;BME280;36472;52.170;20.884;2024-01-15T07:05:07;97832.91;;;2.36;88.87
21276;BME280;36472;52.170;20.884;2024-01-15T07:07:37;97824.81;;;2.41;89.01
21276;BME280;36472;52.170;20.884;2024-01-15T07:10:07;97825.34;;;2.33;89.32
21276;BME280;36472;52.170;20.884;2024-01-15T07:12:36;97835.78;;;2.45;89.52
21276;BME280;36472;52.170;20.884;2024-01-15T07:15:06;97830.03;;;2.04;90.39
21276;BME280;36472;52.170;20.884;2024-01-15T07:17:37;97834.50;;;2.02;91.48
21276;BME280;36472;52.170;20.884;2024-01-15T07:20:08;97833.91;;;1.98;92.51
21276;BME280;36472;52.170;20.884;2024-01-15T07:22:38;97842.88;;;2.05;92.94
21276;BME280;36472;52.170;20.884;2024-01-15T07:25:07;97838.72;;;2.03;93.77
21276;BME280;36472;52.170;20.884;2024-01-15T07:27:36;97848.56;;;2.11;93.96
21276;BME280;36472;52.170;20.884;2024-01-15T07:30:07;97837.38;;;2.10;93.81
21276;BME280;36472;52.170;20.884;2024-01-15T07:32:38;97839.22;;;2.08;94.05
21276;BME280;36472;52.170;20.884;2024-01-15T07:35:08;97844.59;;;1.81;94.36
21276;BME280;36472;52.170;20.884;2024-01-15T07:37:38;97836.19;;;1.90;95.15
21276;BME280;36472;52.170;20.884;2024-01-15T07:40:08;97851.47;;;2.06;95.17
21276;BME280;36472;52.170;20.884;2024-01-15T07:42:38;97859.53;;;2.14;94.55
21276;BME280;36472;52.170;20.884;2024-01-15T07:45:08;97856.75;;;2.04;94.48
21276;BME280;36472;52.170;20.884;2024-01-15T07:47:39;97855.34;;;2.00;94.39
21276;BME280;36472;52.170;20.884;2024-01-15T07:50:08;97846.25;;;2.19;93.67
21276;BME280;36472;52.170;20.884;2024-01-15T07:52:37;97845.50;;;2.17;93.64
21276;BME280;36472;52.170;20.884;2024-01-15T07:55:06;97854.81;;;1.95;93.09
21276;BME280;36472;52.170;20.884;2024-01-15T07:57:35;97858.13;;;1.97;94.22
21276;BME280;36472;52.170;20.884;2024-01-15T08:00:06;97861.22;;;2.02;93.74
21276;BME280;36472;52.170;20.884;2024-01-15T08:02:38;97856.84;;;2.16;93.66
21276;BME280;36472;52.170;20.884;2024-01-15T08:05:08;97866.50;;;2.01;94.06
21276;BME280;36472;52.170;20.884;2024-01-15T08:07:37;97875.44;;;1.97;94.72
21276;BME280;36472;52.170;20.884;2024-01-15T08:10:06;97883.34;;;1.82;95.89
21276;BME280;36472;52.170;20.884;2024-01-15T08:12:35;97873.28;;;1.91;95.73
21276;BME280;36472;52.170;20.884;2024-01-15T08:15:05;97856.72;;;1.93;96.04
21276;BME280;36472;52.170;20.884;2024-01-15T08:17:34;97862.91;;;1.91;95.61
21276;BME280;36472;52.170;20.884;2024-01-15T08:20:06;97860.50;;;2.00;94.72
21276;BME280;36472;52.170;20.884;2024-01-15T08:22:35;97864.09;;;2.11;93.82
21276;BME280;36472;52.170;20.884;2024-01-15T08:25:05;97855.16;;;2.15;93.32
21276;BME280;36472;52.170;20.884;2024-01-15T08:27:34;97854.75;;;2.21;92.43
21276;BME280;36472;52.170;20.884;2024-01-15T08:30:04;97858.72;;;2.14;92.74
21276;BME280;36472;52.170;20.884;2024-01-15T08:32:34;97863.31;;;2.46;91.80
21276;BME280;36472;52.170;20.884;2024-01-15T08:35:06;97851.22;;;2.46;91.22
21276;BME280;36472;52.170;20.884;2024-01-15T08:37:36;97861.63;;;2.57;90.93
21276;BME280;36472;52.170;20.884;2024-01-15T08:40:06;97865.81;;;2.47;91.27
21276;BME280;36472;52.170;20.884;2024-01-15T08:42:35;97867.53;;;2.35;92.12
21276;BME280;36472;52.170;20.884;2024-01-15T08:45:05;97862.06;;;2.27;93.11
21276;BME280;36472;52.170;20.884;2024-01-15T08:47:34;97871.66;;;2.14;95.10
21276;BME280;36472;52.170;20.884;2024-01-15T08:50:07;97877.44;;;2.17;95.62
21276;BME280;36472;52.170;20.884;2024-01-15T08:52:38;97883.50;;;2.05;96.33
21276;BME280;36472;52.170;20.884;2024-01-15T08:55:07;97877.09;;;1.98;96.60
21276;BME280;36472;52.170;20.884;2024-01-15T08:57:36;97878.44;;;2.03;97.17
21276;BME280;36472;52.170;20.884;2024-01-15T09:00:06;97875.16;;;1.89;96.89
21276;BME280;36472;52.170;20.884;2024-01-15T09:02:37;97882.66;;;2.04;96.85
21276;BME280;36472;52.170;20.884;2024-01-15T09:05:08;97875.34;;;1.98;95.43
21276;BME280;36472;52.170;20.884;2024-01-15T09:07:37;97881.84;;;1.91;94.37
21276;BME280;36472;52.170;20.884;2024-01-15T09:10:07;97885.69;;;1.98;94.10
21276;BME280;36472;52.170;20.884;2024-01-15T09:12:36;97877.41;;;2.30;92.25
21276;BME280;36472;52.170;20.884;2024-01-15T09:15:07;97874.19;;;2.51;90.41
21276;BME280;36472;52.170;20.884;2024-01-15T09:17:36;97875.47;;;2.45;89.14
21276;BME280;36472;52.170;20.884;2024-01-15T09:20:08;97865.16;;;2.56;88.47
21276;BME280;36472;52.170;20.884;2024-01-15T09:22:38;97864.84;;;2.72;86.92
21276;BME280;36472;52.170;20.884;2024-01-15T09:25:08;97851.44;;;2.78;86.95
21276;BME280;36472;52.170;20.884;2024-01-15T09:27:38;97867.63;;;2.82;86.40
21276;BME280;36472;52.170;20.884;2024-01-15T09:30:08;97858.38;;;2.78;85.77
21276;BME280;36472;52.170;20.884;2024-01-15T09:32:37;97856.47;;;2.69;85.05
21276;BME280;36472;52.170;20.884;2024-01-15T09:35:09;97856.97;;;2.85;84.31
21276;BME280;36472;52.170;20.884;2024-01-15T09:37:40;97853.78;;;2.70;84.25
21276;BME280;36472;52.170;20.884;2024-01-15T09:40:15;97852.28;;;2.90;83.45
21276;BME280;36472;52.170;20.884;2024-01-15T09:42:46;97863.50;;;2.91;82.04
21276;BME280;36472;52.170;20.884;2024-01-15T09:45:15;97853.03;;;3.04;81.85
21276;BME280;36472;52.170;20.884;2024-01-15T09:47:45;97853.56;;;2.85;81.44
21276;BME280;36472;52.170;20.884;2024-01-15T09:50:16;97847.78;;;2.81;80.59
21276;BME280;36472;52.170;20.884;2024-01-15T09:52:46;97844.88;;;2.86;80.94
21276;BME280;36472;52.170;20.884;2024-01-15T09:55:18;97850.44;;;2.92;80.54
21276;BME280;36472;52.170;20.884;2024-01-15T09:57:47;97846.44;;;3.11;79.82
21276;BME280;36472;52.170;20.884;2024-01-15T10:00:18;97850.06;;;2.97;79.10
21276;BME280;36472;52.170;20.884;2024-01-15T10:02:47;97847.34;;;2.87;78.54
21276;BME280;36472;52.170;20.884;2024-01-15T10:05:18;97840.44;;;2.75;78.44
21276;BME280;36472;52.170;20.884;2024-01-15T10:07:48;97831.19;;;2.84;79.33
21276;BME280;36472;52.170;20.884;2024-01-15T10:10:18;97831.69;;;3.00;78.96
21276;BME280;36472;52.170;20.884;2024-01-15T10:12:50;97854.22;;;2.99;79.01
21276;BME280;36472;52.170;20.884;2024-01-15T10:15:22;97849.63;;;3.03;78.71
21276;BME280;36472;52.170;20.884;2024-01-15T10:17:52;97856.88;;;2.87;77.71
21276;BME280;36472;52.170;20.884;2024-01-15T10:20:23;97845.91;;;2.83;78.44
21276;BME280;36472;52.170;20.884;2024-01-15T10:22:52;97843.97;;;3.09;78.66
21276;BME280;36472;52.170;20.884;2024-01-15T10:25:21;97851.03;;;3.07;77.54
21276;BME280;36472;52.170;20.884;2024-01-15T10:28:01;97847.72;;;2.94;78.37
21276;BME280;36472;52.170;20.884;2024-01-15T10:30:31;97848.69;;;3.04;77.81
21276;BME280;36472;52.170;20.884;2024-01-15T10:33:03;97852.28;;;2.79;78.90
21276;BME280;36472;52.170;20.884;2024-01-15T10:35:35;97851.13;;;3.06;79.31
21276;BME280;36472;52.170;20.884;2024-01-15T10:38:05;97855.63;;;2.92;80.52
21276;BME280;36472;52.170;20.884;2024-01-15T10:40:35;97848.34;;;3.20;79.98
21276;BME280;36472;52.170;20.884;2024-01-15T10:43:04;97838.56;;;3.24;79.25
21276;BME280;36472;52.170;20.884;2024-01-15T10:45:33;97839.16;;;3.27;79.38
21276;BME280;36472;52.170;20.884;2024-01-15T10:48:03;97828.06;;;3.59;78.02
21276;BME280;36472;52.170;20.884;2024-01-15T10:50:34;97829.53;;;3.96;76.77
21276;BME280;36472;52.170;20.884;2024-01-15T10:53:04;97839.59;;;3.89;75.91
21276;BME280;36472;52.170;20.884;2024-01-15T10:55:35;97847.50;;;3.87;75.57
21276;BME280;36472;52.170;20.884;2024-01-15T10:58:04;97849.53;;;3.84;75.86
21276;BME280;36472;52.170;20.884;2024-01-15T11:00:36;97858.28;;;3.71;76.49
21276;BME280;36472;52.170;20.884;2024-01-15T11:03:07;97843.28;;;3.64;76.67
21276;BME280;36472;52.170;20.884;2024-01-15T11:05:38;97842.00;;;3.58;76.74
21276;BME280;36472;52.170;20.884;2024-01-15T11:08:08;97841.28;;;3.56;77.37
21276;BME280;36472;52.170;20.884;2024-01-15T11:10:39;97844.69;;;3.56;77.70
21276;BME280;36472;52.170;20.884;2024-01-15T11:13:13;97843.66;;;3.59;77.54
21276;BME280;36472;52.170;20.884;2024-01-15T11:15:59;97835.97;;;3.35;76.72
21276;BME280;36472;52.170;20.884;2024-01-15T11:18:30;97835.97;;;3.46;77.95
21276;BME280;36472;52.170;20.884;2024-01-15T11:21:25;97829.25;;;3.44;77.23
21276;BME280;36472;52.170;20.884;2024-01-15T11:23:57;97832.91;;;3.52;77.84
21276;BME280;36472;52.170;20.884;2024-01-15T11:26:33;97837.84;;;3.67;76.80
21276;BME280;36472;52.170;20.884;2024-01-15T11:29:05;97827.94;;;3.61;76.38
21276;BME280;36472;52.170;20.884;2024-01-15T11:32:00;97823.22;;;3.32;76.58
21276;BME280;36472;52.170;20.884;2024-01-15T11:34:55;97823.13;;;3.33;77.57
21276;BME280;36472;52.170;20.884;2024-01-15T11:40:18;97830.19;;;3.31;77.94
21276;BME280;36472;52.170;20.884;2024-01-15T11:42:48;97833.72;;;3.30;79.03
21276;BME280;36472;52.170;20.884;2024-01-15T11:45:22;97827.63;;;2.85;80.62
21276;BME280;36472;52.170;20.884;2024-01-15T11:48:12;97822.97;;;3.01;81.45
21276;BME280;36472;52.170;20.884;2024-01-15T11:50:44;97815.78;;;3.05;82.04
21276;BME280;36472;52.170;20.884;2024-01-15T11:53:32;97813.19;;;3.05;82.64
21276;BME280;36472;52.170;20.884;2024-01-15T11:56:08;97808.22;;;3.24;82.11
21276;BME280;36472;52.170;20.884;2024-01-15T11:58:39;97807.41;;;3.24;82.07
21276;BME280;36472;52.170;20.884;2024-01-15T12:01:10;97809.88;;;3.14;81.44
21276;BME280;36472;52.170;20.884;2024-01-15T12:03:39;97814.59;;;3.09;81.46
21276;BME280;36472;52.170;20.884;2024-01-15T12:06:09;97815.78;;;3.05;81.88
21276;BME280;36472;52.170;20.884;2024-01-15T12:08:40;97814.34;;;2.89;82.21
21276;BME280;36472;52.170;20.884;2024-01-15T12:11:15;97814.34;;;2.89;83.19
21276;BME280;36472;52.170;20.884;2024-01-15T12:13:47;97810.69;;;3.03;82.87
21276;BME280;36472;52.170;20.884;2024-01-15T12:16:16;97814.81;;;2.94;83.23
21276;BME280;36472;52.170;20.884;2024-01-15T12:18:45;97806.53;;;3.00;83.54
21276;BME280;36472;52.170;20.884;2024-01-15T12:21:15;97806.44;;;2.91;84.96
21276;BME280;36472;52.170;20.884;2024-01-15T12:23:47;97801.22;;;2.79;85.55
21276;BME280;36472;52.170;20.884;2024-01-15T12:26:17;97801.09;;;2.81;85.30
21276;BME280;36472;52.170;20.884;2024-01-15T12:28:46;97808.56;;;2.86;84.64
21276;BME280;36472;52.170;20.884;2024-01-15T12:31:15;97802.31;;;2.53;86.81
21276;BME280;36472;52.170;20.884;2024-01-15T12:33:45;97802.25;;;2.66;87.77
21276;BME280;36472;52.170;20.884;2024-01-15T12:36:14;97795.81;;;2.36;90.09
21276;BME280;36472;52.170;20.884;2024-01-15T12:38:44;97799.31;;;2.35;91.20
21276;BME280;36472;52.170;20.884;2024-01-15T12:41:15;97803.84;;;2.20;91.47
21276;BME280;36472;52.170;20.884;2024-01-15T12:43:44;97793.38;;;2.21;91.87
21276;BME280;36472;52.170;20.884;2024-01-15T12:46:14;97773.84;;;2.04;92.03
21276;BME280;36472;52.170;20.884;2024-01-15T12:48:43;97789.38;;;2.29;91.56
21276;BME280;36472;52.170;20.884;2024-01-15T12:51:14;97809.41;;;2.27;90.85
21276;BME280;36472;52.170;20.884;2024-01-15T12:53:44;97800.03;;;2.37;89.38
21276;BME280;36472;52.170;20.884;2024-01-15T12:56:14;97799.16;;;2.01;89.54
21276;BME280;36472;52.170;20.884;2024-01-15T12:58:43;97795.19;;;2.08;88.36
21276;BME280;36472;52.170;20.884;2024-01-15T13:01:12;97802.63;;;2.37;87.87
21276;BME280;36472;52.170;20.884;2024-01-15T13:03:41;97810.38;;;2.26;89.50
21276;BME280;36472;52.170;20.884;2024-01-15T13:06:11;97823.47;;;2.11;91.93
21276;BME280;36472;52.170;20.884;2024-01-15T13:08:40;97831.53;;;1.95;93.84
21276;BME280;36472;52.170;20.884;2024-01-15T13:11:09;97822.69;;;1.98;94.99
21276;BME280;36472;52.170;20.884;2024-01-15T13:13:40;97825.78;;;2.03;95.78
21276;BME280;36472;52.170;20.884;2024-01-15T13:16:09;97835.75;;;1.96;95.74
21276;BME280;36472;52.170;20.884;2024-01-15T13:18:38;97834.72;;;1.99;95.88